Time;durP1;ratioP1;P1;durP2;ratioP2;P2;SDS_P1;SDS_P2;PMS_P1;PMS_P2;Temp;Humidity;BMP_temperature;BMP_pressure;BME280_temperature;BME280_humidity;BME280_pressure;Samples;Min_cycle;Max_cycle;Signal;HPM_P1;HPM_P2
2021/06/02 00:03:47;;;;;;;2.55;2.13;;;;;;;;;;5036080;28;20063;-59
2021/06/02 00:06:13;;;;;;;4.15;2.78;;;;;;;;;;5027163;28;20029;-59
2021/06/02 00:08:38;;;;;;;4.20;2.53;;;;;;;;;;5026727;28;20083;-59
2021/06/02 00:11:07;;;;;;;4.07;2.83;;;;;;;;;;5036844;28;20555;-59
2021/06/02 00:13:36;;;;;;;3.75;2.88;;;;;;;;;;5029019;28;20466;-59
2021/06/02 00:16:03;;;;;;;4.38;2.70;;;;;;;;;;5022485;28;20398;-59
2021/06/02 00:18:28;;;;;;;4.18;2.60;;;;;;;;;;5032552;28;20027;-59
2021/06/02 00:20:54;;;;;;;5.03;2.70;;;;;;;;;;5032535;28;20021;-59
2021/06/02 00:23:21;;;;;;;3.38;2.40;;;;;;;;;;5022221;28;20075;-59
2021/06/02 00:25:47;;;;;;;3.17;2.60;;;;;;;;;;5028913;28;20055;-59
2021/06/02 00:28:15;;;;;;;3.75;2.65;;;;;;;;;;5036981;28;20030;-59
2021/06/02 00:30:42;;;;;;;6.10;2.50;;;;;;;;;;5028131;28;20038;-59
2021/06/02 00:33:07;;;;;;;2.95;2.53;;;;;;;;;;5027381;28;20033;-59
2021/06/02 00:35:33;;;;;;;4.30;2.55;;;;;;;;;;5027038;28;20080;-59
2021/06/02 00:37:59;;;;;;;2.75;2.30;;;;;;;;;;5035942;28;20128;-59
2021/06/02 00:40:35;;;;;;;4.13;2.90;;;;;;;;;;5023977;28;20029;-59
2021/06/02 00:43:03;;;;;;;3.10;2.55;;;;;;;;;;5036602;28;20030;-59
2021/06/02 00:45:32;;;;;;;2.92;2.30;;;;;;;;;;5034137;28;20132;-59
2021/06/02 00:48:00;;;;;;;5.07;2.40;;;;;;;;;;5023801;28;20372;-59
2021/06/02 00:50:28;;;;;;;4.75;2.50;;;;;;;;;;5033001;28;20044;-59
2021/06/02 00:52:54;;;;;;;3.30;2.60;;;;;;;;;;5033014;28;20052;-59
2021/06/02 00:55:21;;;;;;;3.22;2.35;;;;;;;;;;5026011;28;20052;-59
2021/06/02 00:57:48;;;;;;;4.45;2.78;;;;;;;;;;5026957;28;20502;-59
2021/06/02 01:00:15;;;;;;;4.40;2.50;;;;;;;;;;5031663;28;20032;-59
2021/06/02 01:02:47;;;;;;;3.72;2.17;;;;;;;;;;5035471;28;20034;-59
2021/06/02 01:05:13;;;;;;;4.15;2.85;;;;;;;;;;5037722;28;20378;-59
2021/06/02 01:07:39;;;;;;;3.75;2.83;;;;;;;;;;5030618;28;20082;-59
2021/06/02 01:10:06;;;;;;;3.13;2.55;;;;;;;;;;5027385;28;20029;-59
2021/06/02 01:12:32;;;;;;;5.18;2.50;;;;;;;;;;5024588;28;20044;-59
2021/06/02 01:14:58;;;;;;;2.63;2.22;;;;;;;;;;5025322;28;20037;-59
2021/06/02 01:17:27;;;;;;;3.33;2.45;;;;;;;;;;5035961;28;20079;-59
2021/06/02 01:19:54;;;;;;;2.78;2.40;;;;;;;;;;5034764;28;20775;-59
2021/06/02 01:22:20;;;;;;;3.15;2.50;;;;;;;;;;5023146;28;20442;-58
2021/06/02 01:24:46;;;;;;;2.75;2.50;;;;;;;;;;5034345;28;20029;-58
2021/06/02 01:27:12;;;;;;;3.05;2.15;;;;;;;;;;5031639;28;20025;-58
2021/06/02 01:29:44;;;;;;;3.70;2.40;;;;;;;;;;5026408;28;20041;-58
2021/06/02 01:32:15;;;;;;;3.38;2.65;;;;;;;;;;5023564;28;20030;-60
2021/06/02 01:35:16;;;;;;;4.82;2.28;;;;;;;;;;5038575;28;20022;-59
2021/06/02 01:38:24;;;;;;;2.95;2.15;;;;;;;;;;5033707;28;20104;-59
2021/06/02 01:41:00;;;;;;;3.22;2.42;;;;;;;;;;5016517;28;20046;-59
2021/06/02 01:43:50;;;;;;;3.20;2.65;;;;;;;;;;5037173;28;20064;-59
2021/06/02 01:46:31;;;;;;;2.97;2.33;;;;;;;;;;5027954;28;20044;-59
2021/06/02 01:49:15;;;;;;;2.88;2.42;;;;;;;;;;5022694;28;20664;-58
2021/06/02 01:52:04;;;;;;;3.78;2.80;;;;;;;;;;5019028;28;20029;-59
2021/06/02 01:55:11;;;;;;;4.10;2.53;;;;;;;;;;5033056;28;20029;-59
2021/06/02 01:58:05;;;;;;;3.58;2.80;;;;;;;;;;5013912;28;20132;-59
2021/06/02 02:01:08;;;;;;;4.97;2.88;;;;;;;;;;5026468;28;20025;-59
2021/06/02 02:03:55;;;;;;;3.78;3.03;;;;;;;;;;5029675;28;20372;-59
2021/06/02 02:07:05;;;;;;;5.28;2.83;;;;;;;;;;5019616;28;20029;-59
2021/06/02 02:09:56;;;;;;;4.72;3.45;;;;;;;;;;5023658;28;20095;-59
2021/06/02 02:12:37;;;;;;;3.63;3.08;;;;;;;;;;5027169;28;20110;-59
2021/06/02 02:15:21;;;;;;;4.07;2.78;;;;;;;;;;5018055;28;20722;-59
2021/06/02 02:18:02;;;;;;;4.05;3.13;;;;;;;;;;5030630;28;20037;-59
2021/06/02 02:20:30;;;;;;;3.00;2.47;;;;;;;;;;5030288;28;20430;-59
2021/06/02 02:23:00;;;;;;;3.42;2.83;;;;;;;;;;5018777;28;20028;-59
2021/06/02 02:25:32;;;;;;;3.85;2.80;;;;;;;;;;5030537;28;20021;-60
2021/06/02 02:28:19;;;;;;;4.43;2.50;;;;;;;;;;5029455;28;20534;-59
2021/06/02 02:30:55;;;;;;;3.80;2.75;;;;;;;;;;5025041;28;20037;-59
2021/06/02 02:33:49;;;;;;;3.50;2.97;;;;;;;;;;5024622;28;20029;-59
2021/06/02 02:36:21;;;;;;;3.63;2.70;;;;;;;;;;5032844;28;20021;-59
2021/06/02 02:39:04;;;;;;;3.17;2.67;;;;;;;;;;5027923;28;20030;-59
2021/06/02 02:41:48;;;;;;;3.38;2.95;;;;;;;;;;5025842;28;20025;-59
2021/06/02 02:44:21;;;;;;;4.80;2.80;;;;;;;;;;5041947;28;20399;-59
2021/06/02 02:47:10;;;;;;;7.00;2.80;;;;;;;;;;5026171;28;20032;-59
2021/06/02 02:49:57;;;;;;;3.45;2.80;;;;;;;;;;5033398;28;20040;-59
2021/06/02 02:52:50;;;;;;;5.90;2.78;;;;;;;;;;5032554;28;20515;-58
2021/06/02 02:55:30;;;;;;;3.58;2.53;;;;;;;;;;5022371;28;20081;-59
2021/06/02 02:58:26;;;;;;;4.03;3.08;;;;;;;;;;5033036;28;20037;-59
2021/06/02 03:01:50;;;;;;;3.67;2.90;;;;;;;;;;5023148;28;20491;-59
2021/06/02 03:04:21;;;;;;;2.97;2.65;;;;;;;;;;5022584;28;20152;-59
2021/06/02 03:06:53;;;;;;;4.75;2.80;;;;;;;;;;5032751;28;20117;-59
2021/06/02 03:09:27;;;;;;;5.57;3.20;;;;;;;;;;5036845;28;20486;-59
2021/06/02 03:12:21;;;;;;;3.78;2.83;;;;;;;;;;5033012;28;20030;-59
2021/06/02 03:15:23;;;;;;;4.30;2.90;;;;;;;;;;5022335;28;20474;-59
2021/06/02 03:17:59;;;;;;;4.00;2.95;;;;;;;;;;5037134;28;20551;-59
2021/06/02 03:20:29;;;;;;;4.72;3.03;;;;;;;;;;5030650;28;20041;-59
2021/06/02 03:23:13;;;;;;;3.80;2.67;;;;;;;;;;5027446;28;20030;-59
2021/06/02 03:26:08;;;;;;;3.25;2.92;;;;;;;;;;5035632;28;20083;-59
2021/06/02 03:29:00;;;;;;;4.07;3.03;;;;;;;;;;5029220;28;20136;-59
2021/06/02 03:31:46;;;;;;;5.70;2.95;;;;;;;;;;5031327;28;20031;-59
2021/06/02 03:34:14;;;;;;;3.25;2.88;;;;;;;;;;5033345;28;20036;-59
2021/06/02 03:37:16;;;;;;;2.85;2.47;;;;;;;;;;5030573;28;20041;-59
2021/06/02 03:39:58;;;;;;;5.40;3.45;;;;;;;;;;5020838;28;20045;-59
2021/06/02 03:42:43;;;;;;;7.88;4.43;;;;;;;;;;5039718;28;20067;-59
2021/06/02 03:45:40;;;;;;;4.70;3.25;;;;;;;;;;5032929;28;20025;-59
2021/06/02 03:48:28;;;;;;;3.40;2.83;;;;;;;;;;5025880;28;20033;-59
2021/06/02 03:51:25;;;;;;;3.83;2.90;;;;;;;;;;5039645;28;20147;-59
2021/06/02 03:54:27;;;;;;;4.85;3.20;;;;;;;;;;5030263;28;20467;-59
2021/06/02 03:56:59;;;;;;;5.63;3.78;;;;;;;;;;5029374;28;20033;-58
2021/06/02 03:59:43;;;;;;;6.20;3.50;;;;;;;;;;5035202;28;20057;-59
2021/06/02 04:02:18;;;;;;;4.95;3.22;;;;;;;;;;5034179;28;20302;-59
2021/06/02 04:05:14;;;;;;;3.42;2.55;;;;;;;;;;5028701;28;20045;-59
2021/06/02 04:07:57;;;;;;;5.93;2.90;;;;;;;;;;5037408;28;20083;-59
2021/06/02 04:10:30;;;;;;;5.70;3.20;;;;;;;;;;5029861;28;20096;-59
2021/06/02 04:13:04;;;;;;;4.55;3.15;;;;;;;;;;5024030;28;20041;-59
2021/06/02 04:15:30;;;;;;;5.47;3.30;;;;;;;;;;5037196;28;20032;-59
2021/06/02 04:17:56;;;;;;;5.40;3.30;;;;;;;;;;5028933;28;20431;-59
2021/06/02 04:20:23;;;;;;;6.90;4.35;;;;;;;;;;5026334;28;20018;-58
2021/06/02 04:22:49;;;;;;;4.97;3.30;;;;;;;;;;5033462;28;20537;-59
2021/06/02 04:25:18;;;;;;;4.30;3.17;;;;;;;;;;5033597;28;20553;-59
2021/06/02 04:27:47;;;;;;;5.70;3.63;;;;;;;;;;5033561;28;20021;-59
2021/06/02 04:30:16;;;;;;;4.95;3.10;;;;;;;;;;5026263;28;20026;-59
2021/06/02 04:32:46;;;;;;;4.47;2.92;;;;;;;;;;5035012;28;20421;-59
2021/06/02 04:35:18;;;;;;;3.40;3.08;;;;;;;;;;5031697;28;20061;-58
2021/06/02 04:37:51;;;;;;;5.57;3.38;;;;;;;;;;5022095;28;20030;-59
2021/06/02 04:40:16;;;;;;;5.30;3.25;;;;;;;;;;5028813;28;20030;-59
2021/06/02 04:42:42;;;;;;;5.28;3.40;;;;;;;;;;5035577;28;20180;-59
2021/06/02 04:45:13;;;;;;;6.20;4.22;;;;;;;;;;5027132;28;20025;-59
2021/06/02 04:47:40;;;;;;;3.80;3.17;;;;;;;;;;5025936;28;20060;-59
2021/06/02 04:50:09;;;;;;;6.97;3.60;;;;;;;;;;5032674;28;20044;-59
2021/06/02 04:53:08;;;;;;;8.57;3.38;;;;;;;;;;5028206;28;20032;-59
2021/06/02 04:56:12;;;;;;;3.47;3.10;;;;;;;;;;5027358;28;20052;-59
2021/06/02 04:58:52;;;;;;;3.85;2.92;;;;;;;;;;5030102;28;20048;-59
2021/06/02 05:01:23;;;;;;;4.40;3.72;;;;;;;;;;5025915;28;20095;-58
2021/06/02 05:03:49;;;;;;;5.85;3.70;;;;;;;;;;5026833;28;20040;-59
2021/06/02 05:06:54;;;;;;;6.45;3.22;;;;;;;;;;5040443;28;20047;-59
2021/06/02 05:09:51;;;;;;;4.70;2.92;;;;;;;;;;5028955;28;20048;-56
2021/06/02 05:12:51;;;;;;;3.00;2.65;;;;;;;;;;5023252;28;20037;-57
2021/06/02 05:15:58;;;;;;;3.28;2.80;;;;;;;;;;5025735;28;20041;-58
2021/06/02 05:18:33;;;;;;;3.50;2.67;;;;;;;;;;5027114;28;20030;-58
2021/06/02 05:24:01;;;;;;;4.63;2.50;;;;;;;;;;5034530;28;20531;-57
2021/06/02 05:27:03;;;;;;;4.63;2.95;;;;;;;;;;5022041;28;20033;-58
2021/06/02 05:30:09;;;;;;;5.90;3.95;;;;;;;;;;4994197;28;20045;-58
2021/06/02 05:33:26;;;;;;;7.95;4.05;;;;;;;;;;5002354;28;20113;-58
2021/06/02 05:36:12;;;;;;;8.60;5.07;;;;;;;;;;5000748;28;20027;-58
2021/06/02 05:38:50;;;;;;;8.73;5.68;;;;;;;;;;4998130;28;20039;-58
2021/06/02 05:41:30;;;;;;;12.02;6.97;;;;;;;;;;5002742;28;20030;-57
2021/06/02 05:44:17;;;;;;;12.00;6.65;;;;;;;;;;5004234;28;20140;-59
2021/06/02 05:47:07;;;;;;;9.25;5.38;;;;;;;;;;4998652;28;20026;-57
2021/06/02 05:49:51;;;;;;;9.10;5.22;;;;;;;;;;5004957;28;20065;-56
2021/06/02 05:52:25;;;;;;;6.60;4.50;;;;;;;;;;5003592;28;20414;-58
2021/06/02 05:55:01;;;;;;;7.25;4.85;;;;;;;;;;4997094;28;20276;-58
2021/06/02 05:57:26;;;;;;;5.63;4.40;;;;;;;;;;5003941;28;20120;-58
2021/06/02 06:01:54;;;;;;;5.03;3.55;;;;;;;;;;5026537;27;20955;-58
2021/06/02 06:04:50;;;;;;;6.97;4.68;;;;;;;;;;5003032;28;20080;-58
2021/06/02 06:07:36;;;;;;;5.30;3.63;;;;;;;;;;4995033;28;20054;-58
2021/06/02 06:10:20;;;;;;;6.57;4.95;;;;;;;;;;4997459;28;20041;-58
2021/06/02 06:12:46;;;;;;;5.07;3.28;;;;;;;;;;4998072;28;20117;-58
2021/06/02 06:15:27;;;;;;;8.63;4.50;;;;;;;;;;4994907;28;20076;-58
2021/06/02 06:17:58;;;;;;;12.25;7.15;;;;;;;;;;5002028;28;20133;-58
2021/06/02 06:20:58;;;;;;;11.50;6.35;;;;;;;;;;4995816;28;20034;-57
2021/06/02 06:23:55;;;;;;;5.55;3.40;;;;;;;;;;4998274;28;20550;-57
2021/06/02 06:26:26;;;;;;;5.20;3.60;;;;;;;;;;4993915;28;20031;-58
2021/06/02 06:28:54;;;;;;;4.60;3.08;;;;;;;;;;4991393;28;20114;-57
2021/06/02 06:31:23;;;;;;;5.65;3.58;;;;;;;;;;4993357;28;20103;-57
2021/06/02 06:33:50;;;;;;;4.32;3.20;;;;;;;;;;4990846;28;20080;-57
2021/06/02 06:36:19;;;;;;;6.10;3.10;;;;;;;;;;4993460;28;20044;-58
2021/06/02 06:39:01;;;;;;;3.55;2.80;;;;;;;;;;4995113;28;20030;-58
2021/06/02 06:41:28;;;;;;;3.92;3.08;;;;;;;;;;4996703;28;20041;-58
2021/06/02 06:43:56;;;;;;;6.30;4.03;;;;;;;;;;4995601;28;20036;-58
2021/06/02 06:46:22;;;;;;;6.13;4.22;;;;;;;;;;4995500;28;20054;-58
2021/06/02 06:48:49;;;;;;;5.95;3.80;;;;;;;;;;4998509;28;20113;-58
2021/06/02 06:51:18;;;;;;;5.63;3.25;;;;;;;;;;4991736;28;20109;-58
2021/06/02 06:53:45;;;;;;;5.13;3.28;;;;;;;;;;4990836;28;20036;-58
2021/06/02 06:56:12;;;;;;;5.90;4.10;;;;;;;;;;4994368;28;20480;-58
2021/06/02 06:58:38;;;;;;;7.13;3.97;;;;;;;;;;4999461;28;20041;-58
2021/06/02 07:01:03;;;;;;;3.33;2.88;;;;;;;;;;4996086;28;20373;-58
2021/06/02 07:03:29;;;;;;;4.28;3.17;;;;;;;;;;4997180;28;20681;-58
2021/06/02 07:05:54;;;;;;;5.00;3.50;;;;;;;;;;4993177;28;20092;-58
2021/06/02 07:08:20;;;;;;;3.28;2.97;;;;;;;;;;4993410;28;20121;-59
2021/06/02 07:10:46;;;;;;;4.15;3.42;;;;;;;;;;4992226;28;20038;-58
2021/06/02 07:13:14;;;;;;;4.80;3.40;;;;;;;;;;4989749;28;20392;-58
2021/06/02 07:15:40;;;;;;;7.63;4.30;;;;;;;;;;4993261;28;20034;-58
2021/06/02 07:18:06;;;;;;;7.95;7.15;;;;;;;;;;4991254;28;20030;-59
2021/06/02 07:20:33;;;;;;;6.78;3.90;;;;;;;;;;4995003;28;20373;-59
2021/06/02 07:23:00;;;;;;;5.85;3.47;;;;;;;;;;4981994;28;20035;-59
2021/06/02 07:25:28;;;;;;;5.10;3.58;;;;;;;;;;4977315;28;20030;-58
2021/06/02 07:27:59;;;;;;;4.57;3.20;;;;;;;;;;4981000;28;20141;-59
2021/06/02 07:30:26;;;;;;;5.32;3.22;;;;;;;;;;4981813;28;20498;-59
2021/06/02 07:32:52;;;;;;;3.60;3.10;;;;;;;;;;4982929;28;20031;-59
2021/06/02 07:35:18;;;;;;;5.75;3.17;;;;;;;;;;4983314;28;20396;-59
2021/06/02 07:37:44;;;;;;;4.45;3.10;;;;;;;;;;4981766;28;20086;-59
2021/06/02 07:40:09;;;;;;;4.18;3.30;;;;;;;;;;4982315;28;20026;-59
2021/06/02 07:42:35;;;;;;;6.88;3.22;;;;;;;;;;4981088;28;20504;-58
2021/06/02 07:45:01;;;;;;;4.65;2.75;;;;;;;;;;4979855;28;20165;-58
2021/06/02 07:47:27;;;;;;;4.75;3.00;;;;;;;;;;4982544;28;20034;-58
2021/06/02 07:49:52;;;;;;;3.75;2.45;;;;;;;;;;4983323;28;20361;-59
2021/06/02 07:52:17;;;;;;;5.95;3.08;;;;;;;;;;4982026;28;20031;-59
2021/06/02 07:54:43;;;;;;;6.68;3.58;;;;;;;;;;4982879;28;20451;-59
2021/06/02 07:57:09;;;;;;;4.75;3.08;;;;;;;;;;4981536;28;20038;-59
2021/06/02 07:59:34;;;;;;;3.90;2.65;;;;;;;;;;4978338;28;20031;-57
2021/06/02 08:02:02;;;;;;;3.95;3.10;;;;;;;;;;4986431;28;20467;-58
2021/06/02 08:04:29;;;;;;;5.85;3.28;;;;;;;;;;4998342;28;20121;-59
2021/06/02 08:06:54;;;;;;;3.72;3.25;;;;;;;;;;4989118;28;20037;-60
2021/06/02 08:09:20;;;;;;;4.47;3.25;;;;;;;;;;4986108;28;20030;-60
2021/06/02 08:11:46;;;;;;;4.55;2.75;;;;;;;;;;4998338;28;20178;-58
2021/06/02 08:14:12;;;;;;;5.88;3.03;;;;;;;;;;4980181;28;20052;-58
2021/06/02 08:16:37;;;;;;;6.53;3.25;;;;;;;;;;4984875;28;20069;-59
2021/06/02 08:19:03;;;;;;;4.75;3.33;;;;;;;;;;4980104;28;20127;-59
2021/06/02 08:21:28;;;;;;;7.10;3.42;;;;;;;;;;4976676;28;20035;-59
2021/06/02 08:23:54;;;;;;;6.35;3.45;;;;;;;;;;4981610;28;20108;-59
2021/06/02 08:26:19;;;;;;;4.60;3.45;;;;;;;;;;4989672;28;20034;-59
2021/06/02 08:28:45;;;;;;;4.57;3.00;;;;;;;;;;4978437;28;20375;-58
2021/06/02 08:31:10;;;;;;;5.78;3.25;;;;;;;;;;4981854;28;20022;-59
2021/06/02 08:33:36;;;;;;;6.43;4.78;;;;;;;;;;4979977;28;20057;-58
2021/06/02 08:36:01;;;;;;;4.35;3.58;;;;;;;;;;4981601;28;20061;-59
2021/06/02 08:38:27;;;;;;;4.78;3.25;;;;;;;;;;4977749;28;20104;-60
2021/06/02 08:40:52;;;;;;;5.90;3.10;;;;;;;;;;4983182;28;20030;-60
2021/06/02 08:43:20;;;;;;;5.88;3.88;;;;;;;;;;4982314;28;20120;-60
2021/06/02 08:45:47;;;;;;;5.55;3.03;;;;;;;;;;4978185;28;20105;-60
2021/06/02 08:48:13;;;;;;;3.90;3.50;;;;;;;;;;4980555;28;20571;-60
2021/06/02 08:50:39;;;;;;;4.55;3.40;;;;;;;;;;4986218;28;20105;-60
2021/06/02 08:53:05;;;;;;;3.75;3.28;;;;;;;;;;4979484;28;20026;-60
2021/06/02 08:55:30;;;;;;;11.20;7.30;;;;;;;;;;4976382;28;20050;-59
2021/06/02 08:57:57;;;;;;;5.18;3.55;;;;;;;;;;4983770;28;20058;-60
2021/06/02 09:00:24;;;;;;;3.67;3.00;;;;;;;;;;4984825;28;20026;-60
2021/06/02 09:02:54;;;;;;;6.47;3.13;;;;;;;;;;4981462;28;20199;-60
2021/06/02 09:05:20;;;;;;;5.63;3.30;;;;;;;;;;4979216;28;20038;-60
2021/06/02 09:07:49;;;;;;;6.75;3.55;;;;;;;;;;4979661;28;20108;-60
2021/06/02 09:10:15;;;;;;;4.50;2.85;;;;;;;;;;4977490;28;20085;-60
2021/06/02 09:12:44;;;;;;;4.60;2.80;;;;;;;;;;4980510;28;20105;-58
2021/06/02 09:15:19;;;;;;;4.90;2.92;;;;;;;;;;4982976;28;20041;-60
2021/06/02 09:17:53;;;;;;;5.55;3.00;;;;;;;;;;4978612;28;20055;-59
2021/06/02 09:20:41;;;;;;;3.40;2.65;;;;;;;;;;4978913;28;20056;-60
2021/06/02 09:23:38;;;;;;;4.78;2.63;;;;;;;;;;4977289;28;20057;-59
2021/06/02 09:26:19;;;;;;;4.03;2.60;;;;;;;;;;4984329;28;20026;-59
2021/06/02 09:28:54;;;;;;;3.10;2.80;;;;;;;;;;4982547;28;20501;-59
2021/06/02 09:31:21;;;;;;;3.33;3.00;;;;;;;;;;4980944;28;20173;-59
2021/06/02 09:33:46;;;;;;;4.57;3.10;;;;;;;;;;4979276;28;20030;-59
2021/06/02 09:36:12;;;;;;;4.82;3.67;;;;;;;;;;4984397;28;20065;-59
2021/06/02 09:38:37;;;;;;;5.53;3.75;;;;;;;;;;4961697;28;221502;-59
2021/06/02 09:41:03;;;;;;;4.60;3.17;;;;;;;;;;5004459;28;20500;-59
2021/06/02 09:43:33;;;;;;;3.30;2.67;;;;;;;;;;5005969;28;20694;-59
2021/06/02 09:46:03;;;;;;;3.75;2.85;;;;;;;;;;5001458;28;20026;-59
2021/06/02 09:48:29;;;;;;;5.22;3.22;;;;;;;;;;4997002;28;20442;-59
2021/06/02 09:50:54;;;;;;;4.95;2.88;;;;;;;;;;4988735;28;20094;-59
2021/06/02 09:53:19;;;;;;;3.90;3.10;;;;;;;;;;4998984;28;20484;-59
2021/06/02 09:55:45;;;;;;;3.20;2.88;;;;;;;;;;4997365;28;21194;-59
2021/06/02 09:58:15;;;;;;;9.20;3.35;;;;;;;;;;4999909;28;20030;-60
2021/06/02 10:00:46;;;;;;;5.75;3.30;;;;;;;;;;5001420;28;20467;-59
2021/06/02 10:03:17;;;;;;;4.03;3.50;;;;;;;;;;5002255;28;20045;-60
2021/06/02 10:05:44;;;;;;;5.70;3.30;;;;;;;;;;5003186;28;20061;-60
2021/06/02 10:08:12;;;;;;;5.07;3.38;;;;;;;;;;4996695;28;20484;-60
2021/06/02 10:10:39;;;;;;;4.00;2.95;;;;;;;;;;4995113;28;20053;-60
2021/06/02 10:13:10;;;;;;;3.15;2.85;;;;;;;;;;4999474;28;20060;-60
2021/06/02 10:15:39;;;;;;;6.63;2.95;;;;;;;;;;5005239;28;20064;-60
2021/06/02 10:18:22;;;;;;;5.22;2.90;;;;;;;;;;4998921;28;20108;-60
2021/06/02 10:21:08;;;;;;;5.05;3.15;;;;;;;;;;5003150;28;20026;-60
2021/06/02 10:23:43;;;;;;;3.45;2.88;;;;;;;;;;4997724;28;20061;-61
2021/06/02 10:26:10;;;;;;;8.40;3.30;;;;;;;;;;4999588;28;20035;-60
2021/06/02 10:28:36;;;;;;;6.70;3.08;;;;;;;;;;5015211;28;20570;-61
2021/06/02 10:31:05;;;;;;;3.90;2.85;;;;;;;;;;4996643;28;20248;-61
2021/06/02 10:33:31;;;;;;;4.53;3.07;;;;;;;;;;5002116;28;20404;-61
2021/06/02 10:35:59;;;;;;;5.00;3.08;;;;;;;;;;5001120;28;20037;-63
2021/06/02 10:38:27;;;;;;;3.10;2.85;;;;;;;;;;5007471;28;20594;-63
2021/06/02 10:40:54;;;;;;;3.65;2.42;;;;;;;;;;5002871;28;20410;-63
2021/06/02 10:43:34;;;;;;;3.97;2.70;;;;;;;;;;5003950;28;20042;-63
2021/06/02 10:46:15;;;;;;;4.18;2.70;;;;;;;;;;4997920;28;20567;-63
2021/06/02 10:48:56;;;;;;;3.83;2.60;;;;;;;;;;5016322;28;20687;-63
2021/06/02 10:51:31;;;;;;;3.17;2.97;;;;;;;;;;5007146;28;20097;-63
2021/06/02 10:54:03;;;;;;;3.05;2.75;;;;;;;;;;4997311;28;20022;-63
2021/06/02 10:56:29;;;;;;;5.18;2.90;;;;;;;;;;5007260;28;20080;-62
2021/06/02 10:58:56;;;;;;;2.83;2.60;;;;;;;;;;5008524;28;20030;-60
2021/06/02 11:01:21;;;;;;;5.85;2.50;;;;;;;;;;5003875;28;20030;-61
2021/06/02 11:04:07;;;;;;;4.13;2.47;;;;;;;;;;5011456;28;20112;-60
2021/06/02 11:06:38;;;;;;;5.97;2.58;;;;;;;;;;4995018;28;20060;-60
2021/06/02 11:09:04;;;;;;;2.95;2.55;;;;;;;;;;5008695;28;20037;-60
2021/06/02 11:11:37;;;;;;;2.38;2.17;;;;;;;;;;5012824;28;20300;-61
2021/06/02 11:14:21;;;;;;;2.80;2.50;;;;;;;;;;5003346;28;20026;-61
2021/06/02 11:16:54;;;;;;;3.95;2.70;;;;;;;;;;5003458;28;20030;-61
2021/06/02 11:19:22;;;;;;;2.88;2.28;;;;;;;;;;5006464;28;20080;-61
2021/06/02 11:21:56;;;;;;;4.70;2.80;;;;;;;;;;5004525;28;20072;-61
2021/06/02 11:24:30;;;;;;;6.90;2.58;;;;;;;;;;4998155;28;20045;-61
2021/06/02 11:27:28;;;;;;;5.43;2.40;;;;;;;;;;4999716;28;20077;-61
2021/06/02 11:29:56;;;;;;;2.80;2.50;;;;;;;;;;5002067;28;20099;-60
2021/06/02 11:32:24;;;;;;;2.25;2.05;;;;;;;;;;4999211;28;20725;-61
2021/06/02 11:34:56;;;;;;;3.75;2.30;;;;;;;;;;5001612;28;20044;-62
2021/06/02 11:37:26;;;;;;;3.10;2.20;;;;;;;;;;5001787;28;20022;-62
2021/06/02 11:39:55;;;;;;;2.95;2.20;;;;;;;;;;5000545;28;20029;-62
2021/06/02 11:42:34;;;;;;;3.13;2.47;;;;;;;;;;4998097;28;20435;-62
2021/06/02 11:45:08;;;;;;;3.35;2.20;;;;;;;;;;5002709;28;20615;-62
2021/06/02 11:47:35;;;;;;;4.43;2.38;;;;;;;;;;4999432;28;20518;-62
2021/06/02 11:50:06;;;;;;;4.75;2.15;;;;;;;;;;4999737;28;20432;-62
2021/06/02 11:52:31;;;;;;;4.10;2.05;;;;;;;;;;4999767;28;20034;-61
2021/06/02 11:55:03;;;;;;;2.40;2.20;;;;;;;;;;5000859;28;20092;-60
2021/06/02 11:57:29;;;;;;;4.38;2.10;;;;;;;;;;5001062;28;20038;-62
2021/06/02 11:59:57;;;;;;;4.13;2.00;;;;;;;;;;4998680;28;20048;-62
2021/06/02 12:02:22;;;;;;;2.38;2.17;;;;;;;;;;5002393;28;20051;-61
2021/06/02 12:04:48;;;;;;;3.05;1.70;;;;;;;;;;5000548;28;20477;-60
2021/06/02 12:07:27;;;;;;;2.03;1.80;;;;;;;;;;5002993;28;20499;-62
2021/06/02 12:09:57;;;;;;;2.47;1.80;;;;;;;;;;4998777;28;20038;-62
2021/06/02 12:12:24;;;;;;;2.03;1.83;;;;;;;;;;4988960;28;20030;-62
2021/06/02 12:14:58;;;;;;;2.70;2.10;;;;;;;;;;5001011;28;20053;-60
2021/06/02 12:17:28;;;;;;;5.53;1.90;;;;;;;;;;5003047;28;20064;-60
2021/06/02 12:19:53;;;;;;;2.55;1.77;;;;;;;;;;5003263;28;20108;-62
2021/06/02 12:22:20;;;;;;;2.83;2.15;;;;;;;;;;5003376;28;20228;-60
2021/06/02 12:25:15;;;;;;;1.83;1.65;;;;;;;;;;5002530;28;20496;-60
2021/06/02 12:27:43;;;;;;;3.72;2.05;;;;;;;;;;5004154;28;20510;-60
2021/06/02 12:30:12;;;;;;;4.63;1.88;;;;;;;;;;5000695;28;20026;-61
2021/06/02 12:33:02;;;;;;;3.38;1.75;;;;;;;;;;4999592;28;20034;-61
2021/06/02 12:35:42;;;;;;;3.15;1.83;;;;;;;;;;4998175;28;20030;-62
2021/06/02 12:38:18;;;;;;;3.70;1.90;;;;;;;;;;4996578;28;20402;-60
2021/06/02 12:40:46;;;;;;;4.57;1.88;;;;;;;;;;4999566;28;20429;-61
2021/06/02 12:43:14;;;;;;;2.77;2.10;;;;;;;;;;5004874;28;20041;-63
2021/06/02 12:45:40;;;;;;;2.30;1.90;;;;;;;;;;5003510;28;20036;-61
2021/06/02 12:48:07;;;;;;;3.15;1.90;;;;;;;;;;5007076;28;20120;-61
2021/06/02 12:50:37;;;;;;;2.72;2.30;;;;;;;;;;5002473;28;20061;-63
2021/06/02 12:53:05;;;;;;;2.85;1.85;;;;;;;;;;4999172;28;20491;-61
2021/06/02 12:55:39;;;;;;;2.40;2.10;;;;;;;;;;4999229;28;20034;-63
2021/06/02 12:58:16;;;;;;;3.35;2.10;;;;;;;;;;5001736;28;20038;-63
2021/06/02 13:00:43;;;;;;;2.10;1.90;;;;;;;;;;4994539;28;20113;-64
2021/06/02 13:03:11;;;;;;;2.85;1.80;;;;;;;;;;5001175;28;20038;-63
2021/06/02 13:05:37;;;;;;;2.60;1.90;;;;;;;;;;4997788;28;20124;-63
2021/06/02 13:08:07;;;;;;;2.05;1.85;;;;;;;;;;4997741;28;20444;-63
2021/06/02 13:10:34;;;;;;;3.35;1.77;;;;;;;;;;4999855;28;20030;-62
2021/06/02 13:13:02;;;;;;;3.08;1.80;;;;;;;;;;5001070;28;20469;-63
2021/06/02 13:15:30;;;;;;;2.75;2.03;;;;;;;;;;5002093;28;20132;-63
2021/06/02 13:17:56;;;;;;;;;;;;;;;;;;4993856;28;20508;-63
2021/06/02 13:20:48;;;;;;;2.55;2.00;;;;;;;;;;5008053;28;20026;-63
2021/06/02 13:23:22;;;;;;;7.00;2.00;;;;;;;;;;4995242;28;20050;-63
2021/06/02 13:25:59;;;;;;;2.30;2.10;;;;;;;;;;4998984;28;20053;-63
2021/06/02 13:28:25;;;;;;;2.20;1.70;;;;;;;;;;5016009;28;20030;-62
2021/06/02 13:30:55;;;;;;;2.47;2.00;;;;;;;;;;5000407;28;20425;-63
2021/06/02 13:33:21;;;;;;;2.88;1.80;;;;;;;;;;4999954;28;20121;-63
2021/06/02 13:36:01;;;;;;;2.63;1.95;;;;;;;;;;5002201;28;20396;-63
2021/06/02 13:38:27;;;;;;;3.15;2.20;;;;;;;;;;4997312;28;20160;-61
2021/06/02 13:40:53;;;;;;;3.13;2.08;;;;;;;;;;4996992;28;20050;-61
2021/06/02 13:43:18;;;;;;;2.47;2.28;;;;;;;;;;4999391;28;20510;-61
2021/06/02 13:46:08;;;;;;;3.70;2.10;;;;;;;;;;5003213;28;20441;-61
2021/06/02 13:48:38;;;;;;;2.88;2.30;;;;;;;;;;4997667;28;20496;-62
2021/06/02 13:51:12;;;;;;;3.33;2.00;;;;;;;;;;5002156;28;20034;-62
2021/06/02 13:53:56;;;;;;;2.90;1.92;;;;;;;;;;5002688;28;20492;-62
2021/06/02 13:56:22;;;;;;;5.82;2.42;;;;;;;;;;5003548;28;20049;-62
2021/06/02 13:59:05;;;;;;;3.22;2.22;;;;;;;;;;5002188;28;20381;-62
2021/06/02 14:01:34;;;;;;;3.97;2.30;;;;;;;;;;5002328;28;20030;-62
2021/06/02 14:03:59;;;;;;;4.45;2.17;;;;;;;;;;4998018;28;20062;-62
2021/06/02 14:06:24;;;;;;;3.35;2.10;;;;;;;;;;4996388;28;20038;-62
2021/06/02 14:08:50;;;;;;;4.68;2.28;;;;;;;;;;4997702;28;20080;-63
2021/06/02 14:11:26;;;;;;;3.78;2.20;;;;;;;;;;5000505;28;20224;-63
2021/06/02 14:13:53;;;;;;;2.35;2.15;;;;;;;;;;5004224;28;20038;-61
2021/06/02 14:16:20;;;;;;;3.10;2.00;;;;;;;;;;4996029;28;20049;-63
2021/06/02 14:18:50;;;;;;;4.47;2.58;;;;;;;;;;5008690;28;20477;-63
2021/06/02 14:21:15;;;;;;;2.70;1.90;;;;;;;;;;4995840;28;20049;-63
2021/06/02 14:23:41;;;;;;;4.95;2.10;;;;;;;;;;5004065;28;20164;-65
2021/06/02 14:26:06;;;;;;;2.70;1.95;;;;;;;;;;4997830;28;20033;-63
2021/06/02 14:28:32;;;;;;;3.15;2.30;;;;;;;;;;5019167;28;20033;-63
2021/06/02 14:30:57;;;;;;;3.35;2.20;;;;;;;;;;5007831;28;20095;-64
2021/06/02 14:33:23;;;;;;;2.58;2.17;;;;;;;;;;5008084;28;20549;-63
2021/06/02 14:35:49;;;;;;;2.88;2.25;;;;;;;;;;5012803;28;20104;-63
2021/06/02 14:38:15;;;;;;;3.45;2.20;;;;;;;;;;5007000;28;20076;-63
2021/06/02 14:40:40;;;;;;;3.08;2.35;;;;;;;;;;5005893;28;20037;-62
2021/06/02 14:43:07;;;;;;;5.05;2.10;;;;;;;;;;5002130;28;20030;-62
2021/06/02 14:45:33;;;;;;;3.17;2.25;;;;;;;;;;5000419;28;20121;-62
2021/06/02 14:47:59;;;;;;;4.70;2.20;;;;;;;;;;5005877;28;20108;-62
2021/06/02 14:50:24;;;;;;;2.72;2.20;;;;;;;;;;5009408;28;20040;-60
2021/06/02 14:52:55;;;;;;;4.28;2.10;;;;;;;;;;5000677;28;20053;-62
2021/06/02 14:55:21;;;;;;;2.45;2.25;;;;;;;;;;5005727;28;20112;-63
2021/06/02 14:57:47;;;;;;;3.38;2.03;;;;;;;;;;5008809;28;20101;-62
2021/06/02 15:00:13;;;;;;;3.75;2.33;;;;;;;;;;5003712;28;20025;-63
2021/06/02 15:02:38;;;;;;;3.05;2.10;;;;;;;;;;5003679;28;20057;-62
2021/06/02 15:05:04;;;;;;;2.95;2.00;;;;;;;;;;5016347;28;20065;-62
2021/06/02 15:07:30;;;;;;;3.08;2.00;;;;;;;;;;5004415;28;20061;-63
2021/06/02 15:09:55;;;;;;;2.65;2.15;;;;;;;;;;5004409;28;20022;-63
2021/06/02 15:12:23;;;;;;;4.95;2.45;;;;;;;;;;4997765;28;20037;-64
2021/06/02 15:14:48;;;;;;;2.60;2.40;;;;;;;;;;4999540;28;20087;-63
2021/06/02 15:17:14;;;;;;;2.40;2.15;;;;;;;;;;5021786;28;20431;-63
2021/06/02 15:19:40;;;;;;;3.53;2.60;;;;;;;;;;5007693;28;20030;-61
2021/06/02 15:22:06;;;;;;;3.53;2.03;;;;;;;;;;5005970;28;20046;-63
2021/06/02 15:24:32;;;;;;;3.15;2.47;;;;;;;;;;5002642;28;20030;-62
2021/06/02 15:27:02;;;;;;;4.88;2.08;;;;;;;;;;5005548;28;20109;-62